createdAt,value
2023-06-20T00:02:02.980Z,100923.31
2023-06-20T00:04:35.804Z,100926.91
2023-06-20T00:07:23.295Z,100920.72
2023-06-20T00:09:56.081Z,100909.31
2023-06-20T00:12:51.378Z,100931.69
2023-06-20T00:15:32.587Z,100931.81
2023-06-20T00:21:17.551Z,100925.63
2023-06-20T00:25:28.544Z,100933.00
2023-06-20T00:28:03.478Z,100914.66
2023-06-20T00:30:44.650Z,100933.31
2023-06-20T00:33:41.821Z,100912.16
2023-06-20T00:36:14.644Z,100900.84
2023-06-20T00:39:08.116Z,100921.22
2023-06-20T00:41:43.503Z,100895.75
2023-06-20T00:44:16.430Z,100900.84
2023-06-20T00:51:01.211Z,100900.53
2023-06-20T00:53:34.137Z,100913.09
2023-06-20T00:56:28.745Z,100910.19
2023-06-20T00:59:28.855Z,100883.38
2023-06-20T01:02:07.240Z,100899.28
2023-06-20T01:04:50.718Z,100895.44
2023-06-20T01:08:20.881Z,100907.88
2023-06-20T01:11:19.461Z,100901.31
2023-06-20T01:14:44.554Z,100883.38
2023-06-20T01:17:46.698Z,100905.16
2023-06-20T01:20:52.125Z,100898.72
2023-06-20T01:23:33.873Z,100887.47
2023-06-20T01:26:09.553Z,100886.44
2023-06-20T01:29:14.901Z,100890.81
2023-06-20T01:31:57.246Z,100875.25
2023-06-20T01:37:57.598Z,100885.44
2023-06-20T01:40:51.269Z,100868.53
2023-06-20T01:43:52.511Z,100869.28
2023-06-20T01:46:27.542Z,100881.31
2023-06-20T01:49:03.154Z,100850.63
2023-06-20T01:51:36.005Z,100863.34
2023-06-20T01:54:11.203Z,100856.00
2023-06-20T01:56:57.942Z,100847.56
2023-06-20T02:02:36.942Z,100838.78
2023-06-20T02:05:34.327Z,100864.41
2023-06-20T02:08:19.570Z,100850.03
2023-06-20T02:11:17.523Z,100862.59
2023-06-20T02:13:51.914Z,100857.81
2023-06-20T02:16:36.740Z,100860.28
2023-06-20T02:19:18.563Z,100865.69
2023-06-20T02:21:58.542Z,100849.63
2023-06-20T02:24:58.338Z,100842.28
2023-06-20T02:27:41.658Z,100853.44
2023-06-20T02:30:39.268Z,100854.75
2023-06-20T02:33:13.526Z,100845.66
2023-06-20T02:36:09.890Z,100862.53
2023-06-20T02:38:45.049Z,100847.69
2023-06-20T02:41:18.735Z,100863.53
2023-06-20T02:43:58.733Z,100877.38
2023-06-20T02:47:41.341Z,100881.81
2023-06-20T02:51:14.515Z,100870.81
2023-06-20T02:54:21.389Z,100868.06
2023-06-20T02:57:22.676Z,100857.94
2023-06-20T03:00:22.678Z,100850.47
2023-06-20T03:07:47.850Z,100861.34
2023-06-20T03:10:23.176Z,100851.69
2023-06-20T03:13:25.931Z,100825.31
2023-06-20T03:15:58.749Z,100838.16
2023-06-20T03:18:31.614Z,100834.88
2023-06-20T03:21:30.100Z,100846.19
2023-06-20T03:24:03.056Z,100830.72
2023-06-20T03:30:04.916Z,100825.38
2023-06-20T03:32:46.610Z,100833.41
2023-06-20T03:35:22.693Z,100834.16
2023-06-20T03:37:57.713Z,100855.63
2023-06-20T03:40:30.512Z,100862.81
2023-06-20T03:43:06.391Z,100842.44
2023-06-20T03:45:39.177Z,100854.44
2023-06-20T03:51:04.820Z,100852.50
2023-06-20T03:53:52.664Z,100891.84
2023-06-20T03:56:25.623Z,100871.00
2023-06-20T04:00:32.525Z,100888.19
2023-06-20T04:07:32.876Z,100861.88
2023-06-20T04:10:10.121Z,100882.94
2023-06-20T04:12:43.665Z,100871.47
2023-06-20T04:18:11.061Z,100877.59
2023-06-20T04:20:43.927Z,100860.69
2023-06-20T04:23:17.716Z,100865.22
2023-06-20T04:25:50.877Z,100845.06
2023-06-20T04:28:35.606Z,100841.69
2023-06-20T04:31:08.357Z,100848.56
2023-06-20T04:34:03.149Z,100847.69
2023-06-20T04:36:35.901Z,100834.50
2023-06-20T04:39:09.816Z,100847.31
2023-06-20T04:41:42.533Z,100849.44
2023-06-20T04:44:39.604Z,100871.09
2023-06-20T04:50:13.560Z,100866.31
2023-06-20T04:52:46.252Z,100868.38
2023-06-20T04:55:39.691Z,100843.94
2023-06-20T05:04:58.535Z,100847.31
2023-06-20T05:07:34.212Z,100836.38
2023-06-20T05:11:45.143Z,100852.56
2023-06-20T05:15:04.120Z,100854.88
2023-06-20T05:17:53.752Z,100848.00
2023-06-20T05:20:29.721Z,100835.75
2023-06-20T05:23:20.733Z,100816.50
2023-06-20T05:29:58.975Z,100816.00
2023-06-20T05:32:32.090Z,100820.16
2023-06-20T05:35:28.994Z,100833.31
2023-06-20T05:38:01.893Z,100805.03
2023-06-20T05:40:34.718Z,100818.31
2023-06-20T05:43:07.557Z,100817.00
2023-06-20T05:45:42.344Z,100804.47
2023-06-20T05:55:06.528Z,100819.84
2023-06-20T05:57:39.408Z,100797.91
2023-06-20T06:00:38.166Z,100808.38
2023-06-20T06:03:11.162Z,100827.78
2023-06-20T06:05:55.900Z,100834.66
2023-06-20T06:08:46.318Z,100818.03
2023-06-20T06:11:26.382Z,100830.13
2023-06-20T06:14:05.202Z,100837.09
2023-06-20T06:16:37.958Z,100839.69
2023-06-20T06:19:16.451Z,100862.16
2023-06-20T06:21:49.103Z,100844.75
2023-06-20T06:24:25.143Z,100842.41
2023-06-20T06:27:00.978Z,100815.84
2023-06-20T06:29:33.669Z,100839.03
2023-06-20T06:32:18.483Z,100826.97
2023-06-20T06:34:51.640Z,100822.13
2023-06-20T06:37:26.263Z,100822.13
2023-06-20T06:39:59.821Z,100822.44
2023-06-20T06:42:45.687Z,100838.28
2023-06-20T06:45:18.774Z,100846.44
2023-06-20T06:47:51.471Z,100845.16
2023-06-20T06:50:24.181Z,100822.13
2023-06-20T06:52:57.026Z,100818.78
2023-06-20T06:55:29.893Z,100819.06
2023-06-20T06:58:02.711Z,100833.16
2023-06-20T07:00:35.805Z,100834.09
2023-06-20T07:03:09.729Z,100823.69
2023-06-20T07:05:54.345Z,100833.09
2023-06-20T07:08:27.013Z,100820.53
2023-06-20T07:10:59.663Z,100830.72
2023-06-20T07:16:33.454Z,100827.44
2023-06-20T07:19:06.200Z,100833.03
2023-06-20T07:21:38.880Z,100818.50
2023-06-20T07:24:23.295Z,100820.97
2023-06-20T07:26:56.091Z,100830.97
2023-06-20T07:29:34.914Z,100816.97
2023-06-20T07:32:07.903Z,100815.88
2023-06-20T07:37:31.196Z,100791.53
2023-06-20T07:40:15.489Z,100801.66
2023-06-20T07:42:50.506Z,100803.25
2023-06-20T07:45:26.598Z,100799.13
2023-06-20T07:47:59.477Z,100794.97
2023-06-20T07:51:23.229Z,100804.34
2023-06-20T07:54:20.928Z,100781.97
2023-06-20T07:58:09.287Z,100817.63
2023-06-20T08:01:18.028Z,100801.72
2023-06-20T08:08:29.764Z,100819.53
2023-06-20T08:11:25.795Z,100820.22
2023-06-20T08:14:07.333Z,100797.75
2023-06-20T08:20:00.957Z,100802.66
2023-06-20T08:23:07.334Z,100809.63
2023-06-20T08:28:24.784Z,100805.50
2023-06-20T08:31:10.550Z,100806.50
2023-06-20T08:34:13.517Z,100786.06
2023-06-20T08:41:30.184Z,100785.25
2023-06-20T08:44:07.714Z,100778.28
2023-06-20T08:47:01.028Z,100796.91
2023-06-20T08:53:24.528Z,100796.91
2023-06-20T08:57:18.457Z,100795.44
2023-06-20T08:59:51.481Z,100778.94
2023-06-20T09:03:42.566Z,100795.69
2023-06-20T09:10:40.756Z,100768.94
2023-06-20T09:39:42.333Z,100801.34
2023-06-20T09:43:13.760Z,100804.41
2023-06-20T09:45:39.535Z,100805.09
2023-06-20T10:31:53.167Z,100757.09
2023-06-20T10:33:59.268Z,100745.72
2023-06-20T10:47:14.973Z,100724.81
2023-06-20T10:55:05.514Z,100732.84
2023-06-20T10:58:15.025Z,100710.41
2023-06-20T11:01:04.957Z,100711.81
2023-06-20T11:03:37.684Z,100709.97
2023-06-20T11:09:51.494Z,100718.28
2023-06-20T11:19:09.231Z,100720.66
2023-06-20T11:22:13.753Z,100719.59
2023-06-20T11:24:46.539Z,100701.50
2023-06-20T11:27:19.533Z,100683.00
2023-06-20T11:29:52.228Z,100671.00
2023-06-20T11:33:32.126Z,100703.72
2023-06-20T11:37:39.249Z,100702.06
2023-06-20T11:40:38.139Z,100701.75
2023-06-20T11:43:44.292Z,100690.31
2023-06-20T11:46:18.226Z,100690.19
2023-06-20T11:48:53.727Z,100705.44
2023-06-20T11:51:40.433Z,100677.22
2023-06-20T11:54:13.958Z,100694.31
2023-06-20T11:56:52.423Z,100685.81
2023-06-20T11:59:28.148Z,100676.66
2023-06-20T12:02:00.963Z,100672.31
2023-06-20T12:06:00.806Z,100672.66
2023-06-20T12:29:11.557Z,100675.25
2023-06-20T12:32:36.785Z,100699.09
2023-06-20T12:42:00.405Z,100679.47
2023-06-20T12:44:33.156Z,100665.75
2023-06-20T12:47:06.466Z,100676.44
2023-06-20T12:55:34.009Z,100660.53
2023-06-20T12:58:06.946Z,100668.56
2023-06-20T13:03:41.196Z,100661.19
2023-06-20T13:06:17.009Z,100680.56
2023-06-20T13:08:51.306Z,100665.94
2023-06-20T13:15:05.618Z,100658.97
2023-06-20T13:17:56.582Z,100664.41
2023-06-20T13:20:38.396Z,100653.94
2023-06-20T13:23:11.184Z,100623.66
2023-06-20T13:25:43.942Z,100620.59
2023-06-20T13:28:16.926Z,100624.28
2023-06-20T13:31:00.041Z,100620.00
2023-06-20T13:33:32.849Z,100615.78
2023-06-20T13:36:08.683Z,100608.56
2023-06-20T13:38:41.803Z,100617.91
2023-06-20T13:41:14.532Z,100611.72
2023-06-20T13:43:53.430Z,100628.47
2023-06-20T13:52:29.417Z,100618.72
2023-06-20T13:55:02.454Z,100610.72
2023-06-20T13:57:41.292Z,100602.97
2023-06-20T14:00:14.709Z,100587.78
2023-06-20T14:02:48.093Z,100600.13
2023-06-20T14:05:21.391Z,100599.63
2023-06-20T14:08:08.215Z,100602.13
2023-06-20T14:13:51.054Z,100580.81
2023-06-20T14:16:26.411Z,100589.09
2023-06-20T14:19:04.970Z,100578.84
2023-06-20T14:21:37.861Z,100583.84
2023-06-20T14:24:13.293Z,100586.22
2023-06-20T14:26:46.124Z,100591.88
2023-06-20T14:29:18.847Z,100576.31
2023-06-20T14:31:51.649Z,100585.13
2023-06-20T14:34:24.416Z,100555.50
2023-06-20T14:37:01.531Z,100564.63
2023-06-20T14:39:37.590Z,100552.88
2023-06-20T14:42:10.559Z,100550.63
2023-06-20T14:45:04.780Z,100546.31
2023-06-20T14:47:40.145Z,100558.97
2023-06-20T14:50:13.171Z,100539.56
2023-06-20T14:52:58.010Z,100546.13
2023-06-20T14:55:37.086Z,100560.00
2023-06-20T14:58:10.658Z,100560.22
2023-06-20T15:00:59.887Z,100565.28
2023-06-20T15:03:32.818Z,100552.59
2023-06-20T15:06:19.551Z,100551.50
2023-06-20T15:08:52.472Z,100548.03
2023-06-20T15:11:30.338Z,100558.69
2023-06-20T15:17:28.496Z,100551.69
2023-06-20T15:28:52.436Z,100542.91
2023-06-20T15:45:05.727Z,100623.72
2023-06-20T15:47:50.734Z,100587.31
2023-06-20T15:50:32.352Z,100624.81
2023-06-20T15:53:09.326Z,100604.59
2023-06-20T15:58:43.689Z,100622.06
2023-06-20T16:01:41.362Z,100649.44
2023-06-20T16:04:39.781Z,100678.25
2023-06-20T16:07:23.840Z,100668.28
2023-06-20T16:09:56.518Z,100684.88
2023-06-20T16:15:10.097Z,100679.63
2023-06-20T16:24:35.661Z,100723.91
2023-06-20T16:30:22.468Z,100734.56
2023-06-20T16:32:55.198Z,100734.81
2023-06-20T16:35:29.322Z,100726.50
2023-06-20T16:38:31.150Z,100732.19
2023-06-20T16:41:04.579Z,100712.69
2023-06-20T16:43:44.338Z,100719.34
2023-06-20T16:46:17.423Z,100728.16
2023-06-20T16:48:50.507Z,100727.41
2023-06-20T16:51:23.213Z,100734.38
2023-06-20T16:53:56.026Z,100735.13
2023-06-20T16:56:29.942Z,100717.25
2023-06-20T16:59:02.650Z,100719.13
2023-06-20T17:01:37.837Z,100727.81
2023-06-20T17:04:17.110Z,100734.28
2023-06-20T17:07:10.051Z,100748.34
2023-06-20T17:09:49.239Z,100750.97
2023-06-20T17:12:22.127Z,100733.31
2023-06-20T17:14:58.924Z,100722.84
2023-06-20T17:17:34.597Z,100708.44
2023-06-20T17:20:32.404Z,100714.31
2023-06-20T17:23:05.161Z,100717.59
2023-06-20T17:25:37.887Z,100716.94
2023-06-20T17:28:28.938Z,100730.56
2023-06-20T17:31:05.549Z,100713.69
2023-06-20T17:33:38.232Z,100709.00
2023-06-20T17:36:13.041Z,100731.56
2023-06-20T17:39:00.916Z,100712.59
2023-06-20T17:41:39.480Z,100715.66
2023-06-20T17:44:16.128Z,100737.97
2023-06-20T17:46:55.932Z,100726.56
2023-06-20T17:49:38.083Z,100738.56
2023-06-20T17:52:10.769Z,100731.47
2023-06-20T17:54:43.360Z,100723.06
2023-06-20T17:57:16.035Z,100726.34
2023-06-20T18:00:06.691Z,100723.19
2023-06-20T18:02:41.736Z,100734.41
2023-06-20T18:08:18.457Z,100721.34
2023-06-20T18:10:51.500Z,100734.41
2023-06-20T18:13:26.574Z,100740.97
2023-06-20T18:15:59.427Z,100774.78
2023-06-20T18:18:33.589Z,100785.69
2023-06-20T18:21:29.423Z,100792.63
2023-06-20T18:24:06.597Z,100779.78
2023-06-20T18:26:51.430Z,100777.81
2023-06-20T18:29:29.648Z,100784.56
2023-06-20T18:32:13.853Z,100774.78
2023-06-20T18:34:48.858Z,100777.63
2023-06-20T18:37:28.886Z,100786.34
2023-06-20T18:40:01.824Z,100801.16
2023-06-20T18:42:35.699Z,100788.16
2023-06-20T18:45:15.308Z,100761.25
2023-06-20T18:47:55.189Z,100763.44
2023-06-20T18:50:36.915Z,100764.06
2023-06-20T18:53:56.299Z,100754.28
2023-06-20T18:56:35.121Z,100745.78
2023-06-20T18:59:08.277Z,100776.28
2023-06-20T19:01:54.394Z,100762.03
2023-06-20T19:04:44.353Z,100785.00
2023-06-20T19:07:19.470Z,100787.63
2023-06-20T19:10:00.182Z,100786.44
2023-06-20T19:12:41.841Z,100798.97
2023-06-20T19:15:38.975Z,100818.81
2023-06-20T19:18:20.638Z,100817.06
2023-06-20T19:20:54.372Z,100826.16
2023-06-20T19:23:27.073Z,100838.81
2023-06-20T19:26:05.899Z,100882.47
2023-06-20T19:28:47.230Z,100874.31
2023-06-20T19:31:39.407Z,100890.72
2023-06-20T19:34:15.311Z,100885.19
2023-06-20T19:36:48.184Z,100891.31
2023-06-20T19:39:20.860Z,100887.63
2023-06-20T19:42:18.409Z,100886.28
2023-06-20T19:45:41.156Z,100902.50
2023-06-20T19:48:14.729Z,100902.66
2023-06-20T19:50:48.492Z,100904.38
2023-06-20T19:53:22.376Z,100918.13
2023-06-20T19:55:55.044Z,100918.91
2023-06-20T19:58:29.187Z,100914.84
2023-06-20T20:01:02.936Z,100913.88
2023-06-20T20:03:35.822Z,100908.72
2023-06-20T20:06:08.482Z,100903.19
2023-06-20T20:08:48.744Z,100901.31
2023-06-20T20:11:21.512Z,100907.00
2023-06-20T20:13:54.163Z,100908.97
2023-06-20T20:16:36.117Z,100916.94
2023-06-20T20:19:14.869Z,100904.38
2023-06-20T20:21:54.659Z,100899.03
2023-06-20T20:24:32.768Z,100913.94
2023-06-20T20:27:08.274Z,100895.38
2023-06-20T20:29:41.056Z,100910.34
2023-06-20T20:32:24.538Z,100893.22
2023-06-20T20:34:57.260Z,100883.50
2023-06-20T20:37:29.953Z,100889.41
2023-06-20T20:40:06.185Z,100899.09
2023-06-20T20:42:39.826Z,100902.78
2023-06-20T20:45:33.600Z,100920.88
2023-06-20T20:48:06.656Z,100924.28
2023-06-20T20:53:25.730Z,100929.81
2023-06-20T20:56:11.507Z,100929.81
2023-06-20T20:58:45.334Z,100927.59
2023-06-20T21:01:18.085Z,100948.56
2023-06-20T21:03:50.900Z,100933.25
2023-06-20T21:06:24.584Z,100958.16
2023-06-20T21:08:57.150Z,100947.75
2023-06-20T21:11:39.183Z,100929.59
2023-06-20T21:14:13.340Z,100920.19
2023-06-20T21:16:49.908Z,100926.09
2023-06-20T21:19:24.330Z,100920.66
2023-06-20T21:21:57.071Z,100911.47
2023-06-20T21:24:29.986Z,100882.78
2023-06-20T21:27:17.198Z,100885.31
2023-06-20T21:29:57.504Z,100908.41
2023-06-20T21:32:42.925Z,100892.06
2023-06-20T21:38:31.941Z,100904.88
2023-06-20T21:41:05.472Z,100923.88
2023-06-20T21:44:03.203Z,100933.50
2023-06-20T21:46:36.169Z,100922.50
2023-06-20T21:49:09.165Z,100916.38
2023-06-20T21:51:57.492Z,100923.78
2023-06-20T21:57:31.794Z,100935.09
2023-06-20T22:00:12.425Z,100927.25
2023-06-20T22:02:45.343Z,100952.31
2023-06-20T22:05:18.472Z,100945.16
2023-06-20T22:07:57.333Z,100946.53
2023-06-20T22:10:51.515Z,100957.47
2023-06-20T22:13:34.431Z,100945.78
2023-06-20T22:16:13.181Z,100950.50
2023-06-20T22:18:54.994Z,100957.47
2023-06-20T22:21:39.890Z,100951.56
2023-06-20T22:24:24.745Z,100941.63
2023-06-20T22:27:07.290Z,100935.50
2023-06-20T22:29:40.273Z,100956.25
2023-06-20T22:32:17.412Z,100938.38
2023-06-20T22:35:09.686Z,100935.50
2023-06-20T22:37:42.284Z,100933.50
2023-06-20T22:40:15.370Z,100943.22
2023-06-20T22:42:48.284Z,100941.91
2023-06-20T22:45:24.489Z,100941.16
2023-06-20T22:47:57.995Z,100942.22
2023-06-20T22:50:43.268Z,100944.53
2023-06-20T22:53:31.135Z,100952.94
2023-06-20T22:56:04.109Z,100944.53
2023-06-20T22:59:02.510Z,100952.88
2023-06-20T23:01:44.514Z,100938.69
2023-06-20T23:07:28.677Z,100937.22
2023-06-20T23:10:02.431Z,100955.66
2023-06-20T23:12:51.345Z,100957.66
2023-06-20T23:18:10.728Z,100962.84
2023-06-20T23:20:46.703Z,100959.56
2023-06-20T23:23:25.616Z,100944.78
2023-06-20T23:26:15.807Z,100956.28
2023-06-20T23:29:06.245Z,100981.84
2023-06-20T23:31:39.164Z,100983.22
2023-06-20T23:34:12.483Z,100979.16
2023-06-20T23:36:50.825Z,100980.44
2023-06-20T23:39:23.612Z,100973.84
2023-06-20T23:42:04.963Z,100959.25
2023-06-20T23:44:43.702Z,100983.03
2023-06-20T23:50:03.445Z,100971.84
2023-06-20T23:52:53.899Z,100991.75
2023-06-20T23:55:41.792Z,100994.34
